Terminal Aerodrome Forecast
Issued by NWS Spokane, WA

Home | Current Version | Previous Version | Text Only | Print | Product List | Glossary On
Versions: 1 2 3 4 5 6 7 8 9 10 11 12 13 14 15 16 17 18 19 20 21 22 23 24 25 26 27 28
146
FTUS46 KOTX 281739
TAFGEG
TAF
KGEG 281739Z 2818/2918 05004KT P6SM SCT070
     FM282100 05007KT P6SM SCT080 BKN120
     FM290500 12005KT P6SM -SHRA BKN060 OVC080
     FM291300 16005KT P6SM -RA BKN020 OVC040=

USA.gov is the U.S. government's official web portal to all federal, state and local government web resources and services.